createdAt,value
2022-08-27T00:02:02.126Z,20.97
2022-08-27T00:04:31.777Z,21.15
2022-08-27T00:07:00.279Z,21.06
2022-08-27T00:09:28.416Z,20.93
2022-08-27T00:11:56.365Z,21.14
2022-08-27T00:14:24.598Z,21.12
2022-08-27T00:16:52.579Z,20.97
2022-08-27T00:19:20.509Z,20.73
2022-08-27T00:21:49.833Z,20.89
2022-08-27T00:24:17.846Z,20.81
2022-08-27T00:26:46.152Z,20.79
2022-08-27T00:29:14.099Z,21.00
2022-08-27T00:31:41.987Z,20.90
2022-08-27T00:34:14.488Z,20.90
2022-08-27T00:36:42.589Z,20.58
2022-08-27T00:39:12.136Z,20.64
2022-08-27T00:41:40.840Z,20.61
2022-08-27T00:44:09.354Z,20.60
2022-08-27T00:46:44.334Z,20.50
2022-08-27T00:49:15.356Z,20.44
2022-08-27T00:51:44.253Z,20.47
2022-08-27T00:54:18.730Z,20.59
2022-08-27T00:56:50.644Z,20.57
2022-08-27T00:59:21.009Z,20.46
2022-08-27T01:02:06.265Z,20.74
2022-08-27T01:04:35.688Z,20.77
2022-08-27T01:07:04.692Z,20.84
2022-08-27T01:09:33.987Z,20.88
2022-08-27T01:12:01.966Z,20.51
2022-08-27T01:14:29.862Z,20.58
2022-08-27T01:16:59.115Z,20.59
2022-08-27T01:19:30.118Z,20.55
2022-08-27T01:22:01.802Z,20.49
2022-08-27T01:24:35.674Z,20.42
2022-08-27T01:27:05.393Z,20.44
2022-08-27T01:29:36.161Z,20.41
2022-08-27T01:32:09.387Z,20.33
2022-08-27T01:34:38.045Z,20.46
2022-08-27T01:37:06.670Z,20.55
2022-08-27T01:39:36.830Z,20.20
2022-08-27T01:42:07.689Z,20.16
2022-08-27T01:44:48.077Z,20.12
2022-08-27T01:47:16.258Z,20.09
2022-08-27T01:49:44.553Z,20.33
2022-08-27T01:52:12.751Z,20.39
2022-08-27T01:54:42.129Z,20.31
2022-08-27T01:57:10.593Z,20.41
2022-08-27T01:59:39.343Z,20.20
2022-08-27T02:02:09.113Z,20.16
2022-08-27T02:04:37.177Z,20.23
2022-08-27T02:07:05.989Z,20.21
2022-08-27T02:09:34.295Z,20.18
2022-08-27T02:12:04.040Z,20.12
2022-08-27T02:14:31.929Z,20.32
2022-08-27T02:16:59.818Z,20.30
2022-08-27T02:19:27.946Z,20.05
2022-08-27T02:22:00.130Z,20.06
2022-08-27T02:24:28.863Z,19.70
2022-08-27T02:26:57.274Z,19.84
2022-08-27T02:29:26.778Z,19.99
2022-08-27T02:31:54.953Z,20.14
2022-08-27T02:34:23.147Z,20.17
2022-08-27T02:36:51.215Z,19.95
2022-08-27T02:39:19.153Z,19.95
2022-08-27T02:41:48.074Z,19.87
2022-08-27T02:44:16.066Z,19.87
2022-08-27T02:46:45.550Z,20.03
2022-08-27T02:49:13.507Z,20.08
2022-08-27T02:51:41.466Z,20.15
2022-08-27T02:54:09.854Z,20.38
2022-08-27T02:56:38.430Z,20.31
2022-08-27T02:59:06.649Z,20.10
2022-08-27T03:01:34.755Z,19.92
2022-08-27T03:04:04.541Z,19.83
2022-08-27T03:06:32.363Z,19.74
2022-08-27T03:09:00.475Z,19.90
2022-08-27T03:11:28.364Z,19.85
2022-08-27T03:13:56.399Z,19.97
2022-08-27T03:16:24.325Z,19.94
2022-08-27T03:18:51.561Z,19.97
2022-08-27T03:21:23.108Z,20.00
2022-08-27T03:23:51.783Z,19.78
2022-08-27T03:26:20.190Z,19.84
2022-08-27T03:28:48.250Z,19.84
2022-08-27T03:31:20.631Z,19.85
2022-08-27T03:33:48.618Z,19.83
2022-08-27T03:36:16.588Z,19.78
2022-08-27T03:38:45.971Z,19.85
2022-08-27T03:41:14.294Z,19.75
2022-08-27T03:43:42.133Z,19.75
2022-08-27T03:46:10.277Z,19.68
2022-08-27T03:48:38.856Z,19.52
2022-08-27T03:51:07.974Z,19.76
2022-08-27T03:53:36.794Z,19.73
2022-08-27T03:56:06.877Z,19.48
2022-08-27T03:58:35.499Z,19.80
2022-08-27T04:01:03.983Z,19.72
2022-08-27T04:03:32.177Z,19.54
2022-08-27T04:06:00.943Z,19.59
2022-08-27T04:08:28.985Z,19.78
2022-08-27T04:10:57.130Z,19.57
2022-08-27T04:13:27.163Z,19.57
2022-08-27T04:15:56.273Z,19.72
2022-08-27T04:18:24.514Z,19.82
2022-08-27T04:20:53.544Z,19.81
2022-08-27T04:23:21.708Z,19.75
2022-08-27T04:25:49.615Z,19.85
2022-08-27T04:28:19.031Z,19.63
2022-08-27T04:30:48.383Z,19.80
2022-08-27T04:33:16.677Z,19.82
2022-08-27T04:35:44.610Z,19.82
2022-08-27T04:38:12.744Z,19.68
2022-08-27T04:40:58.296Z,19.83
2022-08-27T04:43:28.241Z,19.71
2022-08-27T04:45:57.585Z,19.74
2022-08-27T04:48:25.810Z,19.69
2022-08-27T04:50:53.928Z,19.74
2022-08-27T04:53:22.151Z,19.74
2022-08-27T04:55:51.777Z,19.95
2022-08-27T04:58:20.890Z,19.77
2022-08-27T05:00:50.469Z,19.61
2022-08-27T05:03:21.734Z,19.77
2022-08-27T05:05:49.727Z,19.75
2022-08-27T05:08:18.062Z,19.85
2022-08-27T05:10:48.417Z,19.87
2022-08-27T05:13:18.680Z,19.69
2022-08-27T05:15:47.346Z,19.81
2022-08-27T05:18:15.674Z,19.56
2022-08-27T05:20:47.131Z,19.58
2022-08-27T05:23:17.241Z,19.66
2022-08-27T05:25:46.671Z,19.73
2022-08-27T05:28:16.066Z,19.78
2022-08-27T05:30:49.394Z,19.93
2022-08-27T05:33:25.913Z,19.84
2022-08-27T05:35:57.874Z,19.85
2022-08-27T05:38:27.991Z,19.69
2022-08-27T05:41:05.191Z,19.80
2022-08-27T05:43:33.313Z,19.98
2022-08-27T05:46:05.285Z,19.97
2022-08-27T05:48:33.959Z,20.01
2022-08-27T05:51:12.912Z,19.87
2022-08-27T05:53:41.327Z,19.97
2022-08-27T05:56:14.235Z,19.82
2022-08-27T05:58:59.935Z,20.14
2022-08-27T06:01:29.266Z,20.24
2022-08-27T06:03:57.219Z,20.10
2022-08-27T06:06:26.642Z,20.09
2022-08-27T06:08:55.322Z,20.06
2022-08-27T06:11:24.414Z,20.19
2022-08-27T06:13:52.292Z,20.24
2022-08-27T06:16:21.048Z,20.10
2022-08-27T06:18:49.690Z,20.09
2022-08-27T06:21:24.249Z,20.01
2022-08-27T06:23:54.477Z,20.01
2022-08-27T06:26:24.452Z,20.16
2022-08-27T06:28:52.522Z,20.19
2022-08-27T06:31:22.353Z,20.47
2022-08-27T06:33:51.771Z,20.34
2022-08-27T06:36:25.523Z,20.40
2022-08-27T06:38:56.570Z,20.28
2022-08-27T06:41:26.648Z,20.47
2022-08-27T06:43:55.100Z,20.63
2022-08-27T06:46:25.185Z,20.46
2022-08-27T06:48:53.990Z,20.67
2022-08-27T06:51:26.147Z,20.49
2022-08-27T06:53:56.407Z,20.47
2022-08-27T06:56:24.755Z,20.67
2022-08-27T06:58:54.141Z,20.77
2022-08-27T07:01:23.953Z,20.76
2022-08-27T07:03:52.032Z,21.08
2022-08-27T07:06:19.892Z,21.02
2022-08-27T07:08:53.054Z,21.20
2022-08-27T07:11:23.106Z,21.07
2022-08-27T07:13:51.332Z,21.12
2022-08-27T07:16:23.317Z,21.10
2022-08-27T07:18:53.620Z,21.48
2022-08-27T07:21:22.068Z,21.10
2022-08-27T07:23:51.326Z,21.25
2022-08-27T07:26:20.463Z,21.23
2022-08-27T07:28:50.564Z,20.88
2022-08-27T07:31:21.136Z,21.00
2022-08-27T07:33:52.530Z,21.01
2022-08-27T07:36:21.402Z,21.36
2022-08-27T07:38:59.196Z,21.47
2022-08-27T07:41:31.292Z,21.05
2022-08-27T07:44:19.017Z,21.03
2022-08-27T07:46:48.747Z,21.08
2022-08-27T07:49:17.569Z,21.23
2022-08-27T07:51:46.229Z,21.12
2022-08-27T07:54:14.378Z,21.28
2022-08-27T07:56:42.280Z,21.14
2022-08-27T07:59:14.114Z,21.21
2022-08-27T08:01:42.807Z,21.38
2022-08-27T08:04:11.204Z,21.36
2022-08-27T08:06:43.093Z,21.55
2022-08-27T08:09:11.427Z,21.42
2022-08-27T08:11:39.725Z,21.34
2022-08-27T08:14:07.894Z,21.11
2022-08-27T08:16:37.225Z,21.23
2022-08-27T08:19:05.187Z,21.26
2022-08-27T08:21:33.113Z,21.43
2022-08-27T08:24:02.429Z,21.67
2022-08-27T08:26:30.461Z,21.88
2022-08-27T08:29:00.421Z,21.99
2022-08-27T08:31:28.488Z,21.85
2022-08-27T08:33:57.930Z,21.69
2022-08-27T08:36:25.905Z,21.66
2022-08-27T08:38:55.307Z,21.71
2022-08-27T08:41:40.554Z,21.90
2022-08-27T08:44:14.474Z,21.89
2022-08-27T08:46:48.067Z,22.09
2022-08-27T08:49:22.017Z,22.36
2022-08-27T08:51:51.999Z,22.21
2022-08-27T08:54:22.168Z,22.39
2022-08-27T08:56:55.307Z,22.37
2022-08-27T08:59:27.683Z,22.23
2022-08-27T09:01:55.843Z,22.19
2022-08-27T09:04:27.422Z,22.23
2022-08-27T09:06:59.688Z,22.05
2022-08-27T09:09:31.676Z,22.11
2022-08-27T09:12:02.231Z,22.03
2022-08-27T09:14:36.465Z,22.16
2022-08-27T09:17:09.423Z,21.97
2022-08-27T09:19:41.644Z,22.02
2022-08-27T09:22:17.796Z,22.03
2022-08-27T09:24:53.686Z,21.97
2022-08-27T09:27:23.417Z,22.11
2022-08-27T09:29:54.071Z,22.51
2022-08-27T09:32:24.744Z,22.49
2022-08-27T09:34:59.012Z,22.52
2022-08-27T09:37:34.564Z,22.81
2022-08-27T09:40:13.349Z,22.83
2022-08-27T09:42:53.248Z,22.96
2022-08-27T09:45:24.748Z,22.84
2022-08-27T09:47:54.347Z,22.70
2022-08-27T09:50:25.637Z,22.82
2022-08-27T09:52:55.789Z,22.87
2022-08-27T09:55:32.009Z,23.05
2022-08-27T09:58:00.655Z,23.05
2022-08-27T10:00:36.934Z,23.12
2022-08-27T10:03:05.929Z,23.84
2022-08-27T10:05:38.717Z,23.61
2022-08-27T10:08:12.110Z,23.40
2022-08-27T10:10:47.365Z,23.37
2022-08-27T10:13:18.934Z,23.66
2022-08-27T10:15:56.802Z,23.40
2022-08-27T10:18:29.775Z,23.30
2022-08-27T10:21:06.059Z,23.13
2022-08-27T10:23:42.016Z,23.28
2022-08-27T10:26:16.346Z,23.56
2022-08-27T10:28:57.037Z,23.50
2022-08-27T10:31:31.394Z,23.74
2022-08-27T10:34:25.812Z,23.48
2022-08-27T10:37:07.339Z,23.83
2022-08-27T10:39:46.227Z,23.85
2022-08-27T10:42:18.053Z,24.04
2022-08-27T10:44:52.843Z,24.29
2022-08-27T10:47:29.222Z,23.86
2022-08-27T10:50:04.879Z,23.82
2022-08-27T10:52:38.554Z,24.02
2022-08-27T10:55:14.076Z,23.94
2022-08-27T10:58:01.188Z,24.17
2022-08-27T11:00:33.881Z,24.26
2022-08-27T11:03:04.388Z,24.14
2022-08-27T11:05:36.933Z,24.13
2022-08-27T11:08:09.647Z,24.41
2022-08-27T11:10:39.741Z,24.35
2022-08-27T11:13:10.518Z,24.67
2022-08-27T11:15:42.548Z,24.57
2022-08-27T11:18:17.203Z,25.02
2022-08-27T11:20:49.493Z,25.27
2022-08-27T11:23:23.211Z,25.06
2022-08-27T11:25:54.221Z,25.24
2022-08-27T11:28:29.936Z,25.62
2022-08-27T11:31:04.985Z,25.53
2022-08-27T11:33:37.260Z,25.57
2022-08-27T11:36:17.218Z,25.86
2022-08-27T11:38:55.252Z,25.73
2022-08-27T11:41:45.381Z,25.66
2022-08-27T11:44:14.670Z,25.77
2022-08-27T11:46:46.280Z,26.08
2022-08-27T11:49:25.478Z,25.64
2022-08-27T11:51:59.896Z,25.69
2022-08-27T11:54:31.420Z,25.63
2022-08-27T11:56:59.837Z,25.75
2022-08-27T11:59:33.853Z,25.52
2022-08-27T12:02:14.382Z,25.03
2022-08-27T12:04:43.652Z,24.68
2022-08-27T12:07:30.779Z,24.57
2022-08-27T12:10:25.359Z,24.56
2022-08-27T12:13:01.106Z,24.95
2022-08-27T12:15:44.554Z,24.81
2022-08-27T12:18:26.253Z,25.43
2022-08-27T12:20:58.285Z,25.09
2022-08-27T12:23:42.998Z,25.55
2022-08-27T12:26:28.545Z,25.35
2022-08-27T12:29:27.746Z,25.40
2022-08-27T12:32:03.242Z,25.22
2022-08-27T12:34:40.635Z,25.06
2022-08-27T12:37:11.024Z,25.13
2022-08-27T12:39:40.312Z,24.75
2022-08-27T12:42:14.970Z,24.48
2022-08-27T12:44:42.876Z,24.56
2022-08-27T12:47:13.367Z,24.75
2022-08-27T12:49:46.356Z,25.00
2022-08-27T12:52:21.157Z,25.07
2022-08-27T12:54:59.068Z,25.04
2022-08-27T12:57:32.505Z,25.60
2022-08-27T13:00:12.294Z,25.66
2022-08-27T13:02:56.198Z,25.82
2022-08-27T13:05:24.799Z,25.62
2022-08-27T13:07:54.165Z,25.45
2022-08-27T13:10:26.321Z,25.35
2022-08-27T13:13:05.310Z,25.38
2022-08-27T13:15:35.114Z,25.14
2022-08-27T13:18:07.352Z,25.08
2022-08-27T13:20:38.504Z,25.07
2022-08-27T13:23:09.455Z,25.31
2022-08-27T13:25:40.288Z,24.97
2022-08-27T13:28:12.647Z,24.99
2022-08-27T13:30:43.999Z,25.04
2022-08-27T13:33:14.259Z,24.63
2022-08-27T13:35:43.658Z,24.69
2022-08-27T13:38:12.521Z,24.61
2022-08-27T13:40:54.536Z,24.74
2022-08-27T13:43:31.518Z,24.94
2022-08-27T13:46:02.379Z,24.85
2022-08-27T13:48:30.784Z,25.55
2022-08-27T13:50:59.491Z,25.33
2022-08-27T13:53:49.416Z,24.97
2022-08-27T13:56:29.729Z,24.95
2022-08-27T13:59:08.980Z,25.02
2022-08-27T14:01:43.852Z,25.17
2022-08-27T14:04:22.812Z,25.47
2022-08-27T14:06:50.982Z,25.71
2022-08-27T14:09:22.463Z,25.24
2022-08-27T14:11:50.639Z,25.28
2022-08-27T14:14:19.967Z,25.52
2022-08-27T14:16:58.067Z,25.40
2022-08-27T14:19:28.769Z,25.34
2022-08-27T14:22:02.226Z,25.58
2022-08-27T14:24:30.085Z,25.77
2022-08-27T14:27:10.412Z,25.45
2022-08-27T14:29:40.080Z,25.70
2022-08-27T14:32:08.263Z,25.74
2022-08-27T14:34:36.518Z,26.23
2022-08-27T14:37:05.094Z,25.97
2022-08-27T14:39:33.453Z,25.98
2022-08-27T14:42:01.429Z,26.32
2022-08-27T14:44:29.337Z,26.10
2022-08-27T14:46:59.347Z,26.19
2022-08-27T14:49:31.980Z,26.08
2022-08-27T14:51:59.961Z,26.26
2022-08-27T14:54:28.971Z,25.97
2022-08-27T14:57:02.200Z,26.44
2022-08-27T14:59:30.347Z,26.31
2022-08-27T15:02:00.344Z,25.96
2022-08-27T15:04:28.723Z,25.85
2022-08-27T15:06:56.845Z,25.59
2022-08-27T15:09:25.069Z,25.58
2022-08-27T15:11:53.635Z,25.85
2022-08-27T15:14:24.203Z,25.77
2022-08-27T15:16:53.445Z,25.47
2022-08-27T15:19:24.507Z,25.71
2022-08-27T15:21:53.012Z,25.53
2022-08-27T15:24:24.495Z,25.76
2022-08-27T15:26:53.128Z,25.68
2022-08-27T15:29:21.262Z,25.53
2022-08-27T15:31:49.172Z,25.72
2022-08-27T15:34:17.349Z,25.89
2022-08-27T15:36:46.700Z,26.14
2022-08-27T15:39:14.540Z,25.68
2022-08-27T15:44:30.961Z,25.84
2022-08-27T15:46:58.839Z,26.20
2022-08-27T15:49:27.081Z,25.68
2022-08-27T15:51:59.484Z,25.51
2022-08-27T15:54:27.753Z,25.16
2022-08-27T15:56:55.636Z,25.26
2022-08-27T15:59:23.448Z,25.53
2022-08-27T16:01:51.358Z,25.27
2022-08-27T16:04:19.929Z,25.55
2022-08-27T16:06:49.055Z,25.51
2022-08-27T16:09:18.462Z,25.38
2022-08-27T16:11:46.394Z,25.44
2022-08-27T16:14:15.609Z,25.25
2022-08-27T16:16:45.862Z,25.16
2022-08-27T16:19:16.558Z,25.17
2022-08-27T16:21:45.434Z,24.94
2022-08-27T16:24:13.646Z,24.81
2022-08-27T16:26:42.911Z,24.85
2022-08-27T16:29:11.097Z,24.62
2022-08-27T16:31:39.026Z,24.63
2022-08-27T16:34:09.868Z,24.63
2022-08-27T16:36:37.729Z,24.62
2022-08-27T16:39:05.574Z,24.53
2022-08-27T16:41:33.582Z,24.25
2022-08-27T16:44:03.009Z,24.32
2022-08-27T16:46:31.254Z,24.12
2022-08-27T16:49:17.093Z,24.06
2022-08-27T16:51:45.198Z,24.10
2022-08-27T16:54:13.799Z,24.06
2022-08-27T16:56:41.866Z,24.13
2022-08-27T16:59:15.815Z,23.99
2022-08-27T17:01:44.196Z,24.12
2022-08-27T17:04:19.378Z,24.05
2022-08-27T17:06:54.861Z,23.81
2022-08-27T17:09:23.998Z,24.00
2022-08-27T17:11:54.742Z,24.00
2022-08-27T17:14:23.993Z,23.94
2022-08-27T17:16:54.031Z,23.90
2022-08-27T17:19:25.671Z,23.85
2022-08-27T17:21:54.935Z,23.88
2022-08-27T17:24:23.452Z,23.78
2022-08-27T17:26:51.254Z,23.81
2022-08-27T17:29:19.840Z,23.76
2022-08-27T17:31:49.086Z,23.81
2022-08-27T17:34:20.417Z,23.71
2022-08-27T17:36:48.249Z,23.90
2022-08-27T17:39:16.646Z,23.86
2022-08-27T17:41:46.253Z,23.86
2022-08-27T17:44:22.308Z,23.67
2022-08-27T17:46:52.981Z,23.63
2022-08-27T17:49:20.957Z,23.69
2022-08-27T17:51:50.089Z,23.64
2022-08-27T17:54:27.146Z,23.57
2022-08-27T17:56:54.994Z,23.57
2022-08-27T17:59:22.895Z,23.53
2022-08-27T18:01:52.356Z,23.49
2022-08-27T18:04:20.404Z,23.35
2022-08-27T18:06:48.291Z,23.35
2022-08-27T18:09:16.290Z,23.36
2022-08-27T18:11:44.991Z,23.53
2022-08-27T18:14:13.482Z,23.44
2022-08-27T18:16:46.543Z,23.55
2022-08-27T18:19:15.777Z,23.47
2022-08-27T18:21:46.821Z,23.50
2022-08-27T18:24:15.583Z,23.44
2022-08-27T18:26:44.770Z,23.36
2022-08-27T18:29:14.613Z,23.23
2022-08-27T18:31:42.963Z,23.35
2022-08-27T18:34:11.105Z,23.29
2022-08-27T18:36:40.487Z,23.34
2022-08-27T18:39:08.437Z,23.32
2022-08-27T18:41:36.391Z,23.39
2022-08-27T18:44:05.420Z,23.28
2022-08-27T18:46:45.294Z,23.34
2022-08-27T18:49:13.200Z,23.25
2022-08-27T18:51:43.172Z,23.38
2022-08-27T18:54:11.593Z,23.19
2022-08-27T18:56:39.422Z,23.21
2022-08-27T18:59:07.353Z,23.29
2022-08-27T19:01:35.269Z,23.28
2022-08-27T19:04:05.068Z,23.30
2022-08-27T19:06:33.255Z,23.42
2022-08-27T19:09:02.940Z,23.41
2022-08-27T19:11:31.389Z,23.23
2022-08-27T19:13:59.245Z,23.27
2022-08-27T19:16:35.250Z,23.34
2022-08-27T19:19:04.658Z,23.35
2022-08-27T19:21:32.678Z,23.31
2022-08-27T19:24:01.868Z,23.29
2022-08-27T19:26:29.706Z,23.26
2022-08-27T19:28:57.551Z,23.23
2022-08-27T19:31:25.632Z,23.27
2022-08-27T19:33:54.392Z,23.35
2022-08-27T19:36:23.325Z,23.36
2022-08-27T19:38:54.163Z,23.34
2022-08-27T19:41:27.301Z,23.29
2022-08-27T19:43:55.856Z,23.31
2022-08-27T19:46:24.455Z,23.15
2022-08-27T19:48:52.968Z,23.16
2022-08-27T19:51:20.909Z,23.22
2022-08-27T19:53:48.846Z,23.25
2022-08-27T19:56:17.330Z,23.13
2022-08-27T19:58:46.793Z,23.09
2022-08-27T20:01:14.700Z,23.02
2022-08-27T20:03:42.737Z,23.09
2022-08-27T20:06:10.602Z,22.95
2022-08-27T20:08:38.624Z,22.99
2022-08-27T20:11:06.630Z,22.94
2022-08-27T20:13:34.746Z,23.02
2022-08-27T20:16:04.903Z,22.88
2022-08-27T20:18:34.950Z,22.95
2022-08-27T20:21:06.283Z,22.96
2022-08-27T20:23:34.402Z,22.89
2022-08-27T20:26:02.508Z,22.91
2022-08-27T20:28:45.931Z,22.95
2022-08-27T20:31:15.567Z,22.95
2022-08-27T20:33:43.938Z,23.01
2022-08-27T20:36:13.416Z,22.90
2022-08-27T20:38:41.252Z,22.86
2022-08-27T20:41:09.135Z,22.93
2022-08-27T20:43:37.107Z,22.95
2022-08-27T20:46:05.185Z,22.93
2022-08-27T20:48:34.724Z,22.84
2022-08-27T20:51:02.606Z,22.90
2022-08-27T20:53:31.134Z,22.91
2022-08-27T20:55:58.963Z,22.96
2022-08-27T20:58:44.991Z,22.80
2022-08-27T21:01:13.155Z,22.78
2022-08-27T21:03:42.443Z,22.78
2022-08-27T21:06:10.485Z,22.76
2022-08-27T21:08:39.160Z,22.66
2022-08-27T21:11:10.910Z,22.68
2022-08-27T21:13:54.918Z,22.57
2022-08-27T21:16:24.116Z,22.56
2022-08-27T21:18:53.977Z,22.36
2022-08-27T21:21:21.865Z,22.37
2022-08-27T21:23:49.869Z,22.26
2022-08-27T21:26:17.746Z,22.23
2022-08-27T21:28:45.649Z,22.20
2022-08-27T21:31:13.538Z,22.15
2022-08-27T21:33:41.384Z,22.14
2022-08-27T21:36:12.402Z,22.05
2022-08-27T21:38:40.626Z,21.95
2022-08-27T21:41:08.964Z,21.88
2022-08-27T21:43:36.826Z,21.87
2022-08-27T21:46:05.064Z,21.88
2022-08-27T21:48:32.891Z,21.87
2022-08-27T21:51:00.713Z,21.83
2022-08-27T21:53:30.132Z,21.86
2022-08-27T21:55:57.906Z,21.88
2022-08-27T21:58:26.742Z,21.82
2022-08-27T22:00:54.944Z,21.88
2022-08-27T22:03:24.133Z,21.93
2022-08-27T22:05:53.962Z,21.81
2022-08-27T22:08:23.442Z,21.71
2022-08-27T22:13:22.478Z,21.67
2022-08-27T22:15:50.455Z,21.63
2022-08-27T22:18:18.661Z,21.42
2022-08-27T22:20:46.654Z,21.62
2022-08-27T22:23:14.940Z,21.46
2022-08-27T22:25:43.815Z,21.53
2022-08-27T22:28:14.374Z,21.65
2022-08-27T22:30:42.977Z,21.42
2022-08-27T22:33:10.859Z,21.38
2022-08-27T22:35:38.970Z,21.43
2022-08-27T22:38:07.177Z,21.42
2022-08-27T22:40:36.644Z,21.31
2022-08-27T22:43:05.175Z,21.19
2022-08-27T22:45:34.909Z,21.22
2022-08-27T22:48:02.966Z,21.29
2022-08-27T22:50:30.802Z,20.98
2022-08-27T22:52:58.629Z,21.09
2022-08-27T22:55:26.535Z,21.24
2022-08-27T22:57:55.821Z,21.16
2022-08-27T23:00:26.970Z,21.08
2022-08-27T23:02:56.714Z,21.10
2022-08-27T23:05:25.444Z,21.11
2022-08-27T23:07:54.689Z,20.99
2022-08-27T23:10:24.925Z,20.94
2022-08-27T23:12:54.132Z,21.19
2022-08-27T23:15:23.718Z,21.08
2022-08-27T23:17:51.614Z,21.08
2022-08-27T23:20:22.107Z,21.10
2022-08-27T23:22:50.433Z,20.94
2022-08-27T23:25:37.225Z,21.09
2022-08-27T23:28:12.290Z,21.13
2022-08-27T23:30:42.148Z,20.83
2022-08-27T23:33:09.971Z,20.74
2022-08-27T23:35:39.599Z,20.85
2022-08-27T23:38:07.389Z,20.82
2022-08-27T23:40:35.268Z,20.87
2022-08-27T23:43:03.699Z,20.98
2022-08-27T23:45:31.580Z,20.73
2022-08-27T23:47:59.388Z,20.94
2022-08-27T23:50:34.321Z,20.76
2022-08-27T23:53:03.922Z,20.78
2022-08-27T23:55:32.405Z,20.80
2022-08-27T23:58:00.895Z,20.63
